world map with LPCS marked

LPCS - Airport

This information may not be accurate or current and is not valid for navigation or flight planning. No warranty of fitness for any purpose is made or implied.

flag of Portugal

Donate via PayPal

Additional information is available on the NEW Great Circle Mapper

Location
City:  Cascais, Lisboa, Portugal
Near (Alt.):Tires
Name:Aeródromo Municipal de Cascais (Tires Airport)
ICAO / IATA:LPCS / CAT

Details
Type:Airport (Aerodrome, Airfield)
Use:Public/Civil
Latitude:38°43'32"N (38.725556)
Longitude:9°21'19"W (-9.355277)
Elevation:325 ft (99 m)
Runways:1
Longest:4593 × 98 ft (1400 × 30 m)

Time
Timezone:UTC+0 (DST+3)
Local Time:

Weather
METAR:LPCS  132030Z 33008KT 300V360 9999 FEW015 SCT030 12/07 Q1023

Related Locations
Nearby:
Farthest:NZUB: 12283 mi / 19768 km
Maui B [Heliport], NZ

Find:

   beyond  
but within

Other Information
Maps:
Links:
Sources:

  


 


Great Circle Mapper   Great Circle Mapper
Great Circle Mapper FAQ   Great Circle Mapper FAQ
  Karl's Home Page
KLS˛   KLS˛ Home
   GC on Facebook
Airlines of the World   Airlines of the World
Donate via PayPal


Copyright © 2004-2018, Karl L. Swartz. All rights reserved.
All trademarks mentioned herein belong to their respective owners.

Please see credits for attribution and copyright information.

Karl Swartz <karl@kls2.com>
  Powered by FreeBSD
Valid HTML 4.01!
Labeled with ICRA
hCard Microformat
Geo Microformat